675  
SHUS65 KGJT 182014  
FWOGJT  
 
DAILY FIRE WEATHER OBSERVATION  
NATIONAL WEATHER SERVICE GRAND JUNCTION CO  
213 PM MDT FRI SEP 18 2020  
 
STATE OF THE WEATHER (W) 2  
DRY BULB TEMPERATURE 81 DEGREES FAHRENHEIT  
RELATIVE HUMIDITY (RH) 15 PERCENT  
LIGHTNING ACTIVITY LEVEL  
(LAL - MIDNIGHT TO 2 PM) 1  
WIND DIRECTION 270 DEGREES (C IF CALM)  
WIND SPEED 6 MPH  
MAX TEMP (2 PM - 2 PM) 85 DEGREES FAHRENHEIT  
MIN TEMP (2 PM - 2 PM) 53 DEGREES FAHRENHEIT  
MAX RH (2 PM - 2 PM) 37 PERCENT  
MIN RH (2 PM - 2 PM) 14 PERCENT  
PCPN DURATION 0.0 HOURS  
PCPN AMT (2 PM - 2 PM) 0.0 INCHES  
LAL (2 PM - 2 PM) 1  
 

 
 
METAR KGJT 181953Z 25005KT 10SM CLR 27/M02 A3019 RMK AO2 SLP158  
T02721017  
 
CLICK HERE TO GO TO PREVIOUS BULLETINS.

The Nexlab CO Page
The Nexlab UT Page Main Text Page